Vol à sensation.

Vol à sensation.

2 400,00

Baptême de 25 minutes de vol, avec navigation basse altitude, survol des sites caractéristiques de la région, accoutumance, puis évolution de voltige dynamique.

 

Choisissez 3 périodes sur lesquelles vous souhaiteriez voler ! Nous vous recontacterons afin de réserver une de ces 3 périodes ensemble !

Catégorie :

Description

baptême de 25 minutes de vol, avec navigation basse altitude, survol des sites caractéristiques de la région, accoutumance, puis évolution de voltige dynamique

Voir toute les actualités.

Patrouille Sparflex - figure aérienne - Fly and Fun
Patrouille Sparflex - figure aérienne - Fly and Fun
METAR :

LFQA 180900Z AUTO 28005KT 230V350 CAVOK 22/08 Q1013


vue en direct sur l'aérodrome
mentions légales politique de confidentialité
Cochet Concept
cx